sensor_id;sensor_type;location;lat;lon;timestamp;P1;durP1;ratioP1;P2;durP2;ratioP2
69854;SDS011;57146;48.140;16.304;2022-12-24T00:00:57;4.83;;;1.33;;
69854;SDS011;57146;48.140;16.304;2022-12-24T00:03:25;5.22;;;0.90;;
69854;SDS011;57146;48.140;16.304;2022-12-24T00:05:52;2.22;;;0.10;;
69854;SDS011;57146;48.140;16.304;2022-12-24T00:08:19;1.77;;;0.17;;
69854;SDS011;57146;48.140;16.304;2022-12-24T00:10:52;2.38;;;0.10;;
69854;SDS011;57146;48.140;16.304;2022-12-24T00:13:19;2.07;;;0.10;;
69854;SDS011;57146;48.140;16.304;2022-12-24T00:15:47;1.48;;;0.00;;
69854;SDS011;57146;48.140;16.304;2022-12-24T00:18:14;1.65;;;0.00;;
69854;SDS011;57146;48.140;16.304;2022-12-24T00:20:48;1.80;;;0.00;;
69854;SDS011;57146;48.140;16.304;2022-12-24T00:23:16;1.05;;;0.00;;
69854;SDS011;57146;48.140;16.304;2022-12-24T00:25:43;1.03;;;0.00;;
69854;SDS011;57146;48.140;16.304;2022-12-24T00:28:11;1.10;;;0.00;;
69854;SDS011;57146;48.140;16.304;2022-12-24T00:30:39;1.02;;;0.00;;
69854;SDS011;57146;48.140;16.304;2022-12-24T00:33:08;1.17;;;0.00;;
69854;SDS011;57146;48.140;16.304;2022-12-24T00:35:35;0.50;;;0.00;;
69854;SDS011;57146;48.140;16.304;2022-12-24T00:38:03;1.40;;;0.00;;
69854;SDS011;57146;48.140;16.304;2022-12-24T00:40:30;0.95;;;0.00;;
69854;SDS011;57146;48.140;16.304;2022-12-24T00:42:57;0.52;;;0.00;;
69854;SDS011;57146;48.140;16.304;2022-12-24T00:45:24;0.60;;;0.00;;
69854;SDS011;57146;48.140;16.304;2022-12-24T00:47:51;0.60;;;0.00;;
69854;SDS011;57146;48.140;16.304;2022-12-24T00:50:18;0.70;;;0.00;;
69854;SDS011;57146;48.140;16.304;2022-12-24T00:52:45;0.55;;;0.00;;
69854;SDS011;57146;48.140;16.304;2022-12-24T00:55:12;1.73;;;0.00;;
69854;SDS011;57146;48.140;16.304;2022-12-24T00:57:39;0.60;;;0.00;;
69854;SDS011;57146;48.140;16.304;2022-12-24T01:00:06;0.98;;;0.00;;
69854;SDS011;57146;48.140;16.304;2022-12-24T01:02:33;0.43;;;0.00;;
69854;SDS011;57146;48.140;16.304;2022-12-24T01:05:01;1.13;;;0.00;;
69854;SDS011;57146;48.140;16.304;2022-12-24T01:07:27;0.50;;;0.00;;
69854;SDS011;57146;48.140;16.304;2022-12-24T01:09:55;0.20;;;0.00;;
69854;SDS011;57146;48.140;16.304;2022-12-24T01:12:21;0.63;;;0.00;;
69854;SDS011;57146;48.140;16.304;2022-12-24T01:14:48;0.40;;;0.00;;
69854;SDS011;57146;48.140;16.304;2022-12-24T01:17:15;0.60;;;0.00;;
69854;SDS011;57146;48.140;16.304;2022-12-24T01:19:42;0.45;;;0.00;;
69854;SDS011;57146;48.140;16.304;2022-12-24T01:22:09;0.57;;;0.00;;
69854;SDS011;57146;48.140;16.304;2022-12-24T01:24:37;0.95;;;0.00;;
69854;SDS011;57146;48.140;16.304;2022-12-24T01:27:05;0.97;;;0.00;;
69854;SDS011;57146;48.140;16.304;2022-12-24T01:29:32;0.63;;;0.00;;
69854;SDS011;57146;48.140;16.304;2022-12-24T01:31:59;0.98;;;0.00;;
69854;SDS011;57146;48.140;16.304;2022-12-24T01:34:26;0.75;;;0.00;;
69854;SDS011;57146;48.140;16.304;2022-12-24T01:36:53;0.43;;;0.00;;
69854;SDS011;57146;48.140;16.304;2022-12-24T01:39:20;0.80;;;0.00;;
69854;SDS011;57146;48.140;16.304;2022-12-24T01:41:47;0.52;;;0.00;;
69854;SDS011;57146;48.140;16.304;2022-12-24T01:44:24;1.42;;;0.00;;
69854;SDS011;57146;48.140;16.304;2022-12-24T01:49:56;0.57;;;0.00;;
69854;SDS011;57146;48.140;16.304;2022-12-24T01:52:30;2.30;;;0.00;;
69854;SDS011;57146;48.140;16.304;2022-12-24T01:55:02;1.05;;;0.00;;
69854;SDS011;57146;48.140;16.304;2022-12-24T01:57:40;0.20;;;0.00;;
69854;SDS011;57146;48.140;16.304;2022-12-24T02:00:12;0.47;;;0.00;;
69854;SDS011;57146;48.140;16.304;2022-12-24T02:02:42;0.25;;;0.00;;
69854;SDS011;57146;48.140;16.304;2022-12-24T02:05:16;0.53;;;0.00;;
69854;SDS011;57146;48.140;16.304;2022-12-24T02:07:49;0.30;;;0.00;;
69854;SDS011;57146;48.140;16.304;2022-12-24T02:10:17;0.10;;;0.00;;
69854;SDS011;57146;48.140;16.304;2022-12-24T02:12:44;1.95;;;0.00;;
69854;SDS011;57146;48.140;16.304;2022-12-24T02:15:13;0.10;;;0.00;;
69854;SDS011;57146;48.140;16.304;2022-12-24T02:20:26;0.32;;;0.00;;
69854;SDS011;57146;48.140;16.304;2022-12-24T02:31:38;0.30;;;0.00;;
69854;SDS011;57146;48.140;16.304;2022-12-24T02:34:13;0.22;;;0.00;;
69854;SDS011;57146;48.140;16.304;2022-12-24T02:37:06;0.90;;;0.00;;
69854;SDS011;57146;48.140;16.304;2022-12-24T02:39:56;0.13;;;0.00;;
69854;SDS011;57146;48.140;16.304;2022-12-24T02:42:43;0.10;;;0.00;;
69854;SDS011;57146;48.140;16.304;2022-12-24T02:45:21;0.30;;;0.00;;
69854;SDS011;57146;48.140;16.304;2022-12-24T02:47:53;0.25;;;0.00;;
69854;SDS011;57146;48.140;16.304;2022-12-24T02:50:21;0.60;;;0.00;;
69854;SDS011;57146;48.140;16.304;2022-12-24T02:52:49;0.77;;;0.05;;
69854;SDS011;57146;48.140;16.304;2022-12-24T02:58:09;0.50;;;0.00;;
69854;SDS011;57146;48.140;16.304;2022-12-24T03:00:53;0.10;;;0.00;;
69854;SDS011;57146;48.140;16.304;2022-12-24T03:06:00;0.40;;;0.00;;
69854;SDS011;57146;48.140;16.304;2022-12-24T03:08:58;1.02;;;0.00;;
69854;SDS011;57146;48.140;16.304;2022-12-24T03:11:30;1.27;;;0.00;;
69854;SDS011;57146;48.140;16.304;2022-12-24T03:14:01;0.30;;;0.00;;
69854;SDS011;57146;48.140;16.304;2022-12-24T03:16:29;1.33;;;0.00;;
69854;SDS011;57146;48.140;16.304;2022-12-24T03:18:56;0.50;;;0.00;;
69854;SDS011;57146;48.140;16.304;2022-12-24T03:21:28;0.47;;;0.00;;
69854;SDS011;57146;48.140;16.304;2022-12-24T03:23:59;0.43;;;0.00;;
69854;SDS011;57146;48.140;16.304;2022-12-24T03:26:26;0.88;;;0.00;;
69854;SDS011;57146;48.140;16.304;2022-12-24T03:28:55;0.60;;;0.00;;
69854;SDS011;57146;48.140;16.304;2022-12-24T03:31:22;1.38;;;0.00;;
69854;SDS011;57146;48.140;16.304;2022-12-24T03:33:49;0.80;;;0.00;;
69854;SDS011;57146;48.140;16.304;2022-12-24T03:36:16;0.40;;;0.00;;
69854;SDS011;57146;48.140;16.304;2022-12-24T03:38:43;0.40;;;0.00;;
69854;SDS011;57146;48.140;16.304;2022-12-24T03:41:10;0.47;;;0.00;;
69854;SDS011;57146;48.140;16.304;2022-12-24T03:43:37;1.35;;;0.00;;
69854;SDS011;57146;48.140;16.304;2022-12-24T03:46:05;0.55;;;0.00;;
69854;SDS011;57146;48.140;16.304;2022-12-24T03:48:33;1.13;;;0.00;;
69854;SDS011;57146;48.140;16.304;2022-12-24T03:51:02;0.88;;;0.00;;
69854;SDS011;57146;48.140;16.304;2022-12-24T03:53:29;1.42;;;0.00;;
69854;SDS011;57146;48.140;16.304;2022-12-24T03:55:56;1.38;;;0.00;;
69854;SDS011;57146;48.140;16.304;2022-12-24T03:58:23;1.20;;;0.00;;
69854;SDS011;57146;48.140;16.304;2022-12-24T04:00:52;0.30;;;0.00;;
69854;SDS011;57146;48.140;16.304;2022-12-24T04:03:19;0.95;;;0.00;;
69854;SDS011;57146;48.140;16.304;2022-12-24T04:05:47;1.27;;;0.00;;
69854;SDS011;57146;48.140;16.304;2022-12-24T04:08:14;0.93;;;0.00;;
69854;SDS011;57146;48.140;16.304;2022-12-24T04:10:41;1.02;;;0.00;;
69854;SDS011;57146;48.140;16.304;2022-12-24T04:13:10;0.33;;;0.00;;
69854;SDS011;57146;48.140;16.304;2022-12-24T04:15:37;0.43;;;0.00;;
69854;SDS011;57146;48.140;16.304;2022-12-24T04:18:04;3.13;;;0.00;;
69854;SDS011;57146;48.140;16.304;2022-12-24T04:20:31;0.68;;;0.00;;
69854;SDS011;57146;48.140;16.304;2022-12-24T04:22:58;0.45;;;0.00;;
69854;SDS011;57146;48.140;16.304;2022-12-24T04:25:24;0.70;;;0.00;;
69854;SDS011;57146;48.140;16.304;2022-12-24T04:27:51;0.95;;;0.00;;
69854;SDS011;57146;48.140;16.304;2022-12-24T04:30:18;0.75;;;0.00;;
69854;SDS011;57146;48.140;16.304;2022-12-24T04:32:45;2.58;;;0.00;;
69854;SDS011;57146;48.140;16.304;2022-12-24T04:35:12;0.63;;;0.00;;
69854;SDS011;57146;48.140;16.304;2022-12-24T04:37:39;2.17;;;0.00;;
69854;SDS011;57146;48.140;16.304;2022-12-24T04:40:06;0.95;;;0.00;;
69854;SDS011;57146;48.140;16.304;2022-12-24T04:42:33;0.73;;;0.00;;
69854;SDS011;57146;48.140;16.304;2022-12-24T04:45:00;0.50;;;0.00;;
69854;SDS011;57146;48.140;16.304;2022-12-24T04:47:27;1.40;;;0.00;;
69854;SDS011;57146;48.140;16.304;2022-12-24T04:49:54;1.00;;;0.00;;
69854;SDS011;57146;48.140;16.304;2022-12-24T04:52:20;0.35;;;0.00;;
69854;SDS011;57146;48.140;16.304;2022-12-24T04:54:47;0.35;;;0.00;;
69854;SDS011;57146;48.140;16.304;2022-12-24T04:57:14;0.50;;;0.00;;
69854;SDS011;57146;48.140;16.304;2022-12-24T04:59:41;0.50;;;0.00;;
69854;SDS011;57146;48.140;16.304;2022-12-24T05:02:08;0.93;;;0.00;;
69854;SDS011;57146;48.140;16.304;2022-12-24T05:04:35;0.45;;;0.00;;
69854;SDS011;57146;48.140;16.304;2022-12-24T05:07:02;0.40;;;0.00;;
69854;SDS011;57146;48.140;16.304;2022-12-24T05:09:29;1.05;;;0.00;;
69854;SDS011;57146;48.140;16.304;2022-12-24T05:11:56;1.48;;;0.00;;
69854;SDS011;57146;48.140;16.304;2022-12-24T05:14:23;1.30;;;0.00;;
69854;SDS011;57146;48.140;16.304;2022-12-24T05:16:50;1.48;;;0.00;;
69854;SDS011;57146;48.140;16.304;2022-12-24T05:19:17;1.52;;;0.00;;
69854;SDS011;57146;48.140;16.304;2022-12-24T05:21:43;2.05;;;0.00;;
69854;SDS011;57146;48.140;16.304;2022-12-24T05:24:10;1.25;;;0.05;;
69854;SDS011;57146;48.140;16.304;2022-12-24T05:29:09;1.95;;;0.00;;
69854;SDS011;57146;48.140;16.304;2022-12-24T05:31:37;0.80;;;0.00;;
69854;SDS011;57146;48.140;16.304;2022-12-24T05:34:04;2.47;;;0.00;;
69854;SDS011;57146;48.140;16.304;2022-12-24T05:36:32;1.63;;;0.00;;
69854;SDS011;57146;48.140;16.304;2022-12-24T05:38:59;1.37;;;0.00;;
69854;SDS011;57146;48.140;16.304;2022-12-24T05:41:26;1.13;;;0.00;;
69854;SDS011;57146;48.140;16.304;2022-12-24T05:43:53;1.42;;;0.00;;
69854;SDS011;57146;48.140;16.304;2022-12-24T05:46:21;2.72;;;0.00;;
69854;SDS011;57146;48.140;16.304;2022-12-24T05:48:49;1.73;;;0.00;;
69854;SDS011;57146;48.140;16.304;2022-12-24T05:51:19;2.23;;;0.00;;
69854;SDS011;57146;48.140;16.304;2022-12-24T05:53:47;1.17;;;0.00;;
69854;SDS011;57146;48.140;16.304;2022-12-24T05:56:17;1.55;;;0.00;;
69854;SDS011;57146;48.140;16.304;2022-12-24T05:58:49;0.55;;;0.03;;
69854;SDS011;57146;48.140;16.304;2022-12-24T06:01:18;1.55;;;0.00;;
69854;SDS011;57146;48.140;16.304;2022-12-24T06:03:45;1.63;;;0.00;;
69854;SDS011;57146;48.140;16.304;2022-12-24T06:06:13;1.33;;;0.00;;
69854;SDS011;57146;48.140;16.304;2022-12-24T06:08:42;2.25;;;0.20;;
69854;SDS011;57146;48.140;16.304;2022-12-24T06:11:10;0.70;;;0.00;;
69854;SDS011;57146;48.140;16.304;2022-12-24T06:13:40;1.13;;;0.00;;
69854;SDS011;57146;48.140;16.304;2022-12-24T06:16:09;1.70;;;0.00;;
69854;SDS011;57146;48.140;16.304;2022-12-24T06:18:40;2.10;;;0.00;;
69854;SDS011;57146;48.140;16.304;2022-12-24T06:21:07;1.33;;;0.00;;
69854;SDS011;57146;48.140;16.304;2022-12-24T06:23:36;1.17;;;0.00;;
69854;SDS011;57146;48.140;16.304;2022-12-24T06:26:05;0.95;;;0.00;;
69854;SDS011;57146;48.140;16.304;2022-12-24T06:28:34;1.70;;;0.00;;
69854;SDS011;57146;48.140;16.304;2022-12-24T06:31:03;1.15;;;0.00;;
69854;SDS011;57146;48.140;16.304;2022-12-24T06:33:32;1.15;;;0.00;;
69854;SDS011;57146;48.140;16.304;2022-12-24T06:36:00;1.35;;;0.00;;
69854;SDS011;57146;48.140;16.304;2022-12-24T06:38:28;1.08;;;0.00;;
69854;SDS011;57146;48.140;16.304;2022-12-24T06:40:56;1.33;;;0.17;;
69854;SDS011;57146;48.140;16.304;2022-12-24T06:43:23;2.08;;;0.00;;
69854;SDS011;57146;48.140;16.304;2022-12-24T06:45:50;2.03;;;0.00;;
69854;SDS011;57146;48.140;16.304;2022-12-24T06:48:17;2.35;;;0.00;;
69854;SDS011;57146;48.140;16.304;2022-12-24T06:50:44;1.70;;;0.00;;
69854;SDS011;57146;48.140;16.304;2022-12-24T06:53:10;1.87;;;0.00;;
69854;SDS011;57146;48.140;16.304;2022-12-24T06:55:37;1.50;;;0.00;;
69854;SDS011;57146;48.140;16.304;2022-12-24T06:58:04;1.65;;;0.00;;
69854;SDS011;57146;48.140;16.304;2022-12-24T07:00:31;3.58;;;0.00;;
69854;SDS011;57146;48.140;16.304;2022-12-24T07:02:59;1.60;;;0.00;;
69854;SDS011;57146;48.140;16.304;2022-12-24T07:05:26;1.13;;;0.00;;
69854;SDS011;57146;48.140;16.304;2022-12-24T07:07:53;0.98;;;0.00;;
69854;SDS011;57146;48.140;16.304;2022-12-24T07:10:20;2.10;;;0.03;;
69854;SDS011;57146;48.140;16.304;2022-12-24T07:12:47;2.15;;;0.00;;
69854;SDS011;57146;48.140;16.304;2022-12-24T07:15:15;2.33;;;0.00;;
69854;SDS011;57146;48.140;16.304;2022-12-24T07:17:42;0.90;;;0.00;;
69854;SDS011;57146;48.140;16.304;2022-12-24T07:20:11;1.90;;;0.00;;
69854;SDS011;57146;48.140;16.304;2022-12-24T07:22:39;2.30;;;0.00;;
69854;SDS011;57146;48.140;16.304;2022-12-24T07:25:06;1.40;;;0.00;;
69854;SDS011;57146;48.140;16.304;2022-12-24T07:27:34;1.70;;;0.00;;
69854;SDS011;57146;48.140;16.304;2022-12-24T07:30:01;3.23;;;0.00;;
69854;SDS011;57146;48.140;16.304;2022-12-24T07:32:29;2.45;;;0.00;;
69854;SDS011;57146;48.140;16.304;2022-12-24T07:34:56;2.38;;;0.00;;
69854;SDS011;57146;48.140;16.304;2022-12-24T07:37:23;2.60;;;0.00;;
69854;SDS011;57146;48.140;16.304;2022-12-24T07:39:50;1.58;;;0.00;;
69854;SDS011;57146;48.140;16.304;2022-12-24T07:42:17;2.20;;;0.00;;
69854;SDS011;57146;48.140;16.304;2022-12-24T07:44:44;3.55;;;0.08;;
69854;SDS011;57146;48.140;16.304;2022-12-24T07:47:10;2.38;;;0.05;;
69854;SDS011;57146;48.140;16.304;2022-12-24T07:49:37;4.13;;;0.00;;
69854;SDS011;57146;48.140;16.304;2022-12-24T07:52:04;4.57;;;0.00;;
69854;SDS011;57146;48.140;16.304;2022-12-24T07:54:31;1.60;;;0.00;;
69854;SDS011;57146;48.140;16.304;2022-12-24T07:56:58;2.00;;;0.00;;
69854;SDS011;57146;48.140;16.304;2022-12-24T07:59:25;2.88;;;0.00;;
69854;SDS011;57146;48.140;16.304;2022-12-24T08:01:52;3.00;;;0.00;;
69854;SDS011;57146;48.140;16.304;2022-12-24T08:04:19;2.97;;;0.00;;
69854;SDS011;57146;48.140;16.304;2022-12-24T08:06:46;2.87;;;0.10;;
69854;SDS011;57146;48.140;16.304;2022-12-24T08:09:13;2.58;;;0.10;;
69854;SDS011;57146;48.140;16.304;2022-12-24T08:11:40;2.85;;;0.00;;
69854;SDS011;57146;48.140;16.304;2022-12-24T08:14:17;1.38;;;0.10;;
69854;SDS011;57146;48.140;16.304;2022-12-24T08:16:44;1.30;;;0.00;;
69854;SDS011;57146;48.140;16.304;2022-12-24T08:19:11;1.20;;;0.00;;
69854;SDS011;57146;48.140;16.304;2022-12-24T08:21:37;2.78;;;0.00;;
69854;SDS011;57146;48.140;16.304;2022-12-24T08:24:05;4.07;;;0.17;;
69854;SDS011;57146;48.140;16.304;2022-12-24T08:26:32;1.70;;;0.00;;
69854;SDS011;57146;48.140;16.304;2022-12-24T08:28:58;1.20;;;0.00;;
69854;SDS011;57146;48.140;16.304;2022-12-24T08:31:27;1.03;;;0.00;;
69854;SDS011;57146;48.140;16.304;2022-12-24T08:33:54;2.15;;;0.00;;
69854;SDS011;57146;48.140;16.304;2022-12-24T08:36:21;1.75;;;0.00;;
69854;SDS011;57146;48.140;16.304;2022-12-24T08:38:48;1.23;;;0.00;;
69854;SDS011;57146;48.140;16.304;2022-12-24T08:41:14;1.95;;;0.00;;
69854;SDS011;57146;48.140;16.304;2022-12-24T08:43:41;1.83;;;0.00;;
69854;SDS011;57146;48.140;16.304;2022-12-24T08:46:08;2.25;;;0.00;;
69854;SDS011;57146;48.140;16.304;2022-12-24T08:48:35;2.28;;;0.00;;
69854;SDS011;57146;48.140;16.304;2022-12-24T08:51:08;1.00;;;0.00;;
69854;SDS011;57146;48.140;16.304;2022-12-24T08:53:36;3.25;;;0.13;;
69854;SDS011;57146;48.140;16.304;2022-12-24T08:56:04;1.20;;;0.00;;
69854;SDS011;57146;48.140;16.304;2022-12-24T08:58:34;1.27;;;0.00;;
69854;SDS011;57146;48.140;16.304;2022-12-24T09:01:08;1.70;;;0.00;;
69854;SDS011;57146;48.140;16.304;2022-12-24T09:03:42;2.15;;;0.10;;
69854;SDS011;57146;48.140;16.304;2022-12-24T09:06:09;3.80;;;0.10;;
69854;SDS011;57146;48.140;16.304;2022-12-24T09:08:36;2.37;;;0.00;;
69854;SDS011;57146;48.140;16.304;2022-12-24T09:11:04;2.03;;;0.00;;
69854;SDS011;57146;48.140;16.304;2022-12-24T09:13:33;1.23;;;0.00;;
69854;SDS011;57146;48.140;16.304;2022-12-24T09:16:00;2.20;;;0.00;;
69854;SDS011;57146;48.140;16.304;2022-12-24T09:18:28;1.52;;;0.00;;
69854;SDS011;57146;48.140;16.304;2022-12-24T09:21:00;1.23;;;0.00;;
69854;SDS011;57146;48.140;16.304;2022-12-24T09:23:28;3.30;;;0.00;;
69854;SDS011;57146;48.140;16.304;2022-12-24T09:25:55;3.60;;;0.20;;
69854;SDS011;57146;48.140;16.304;2022-12-24T09:28:22;3.00;;;0.15;;
69854;SDS011;57146;48.140;16.304;2022-12-24T09:30:56;2.85;;;0.00;;
69854;SDS011;57146;48.140;16.304;2022-12-24T09:33:27;2.07;;;0.00;;
69854;SDS011;57146;48.140;16.304;2022-12-24T09:35:57;2.45;;;0.10;;
69854;SDS011;57146;48.140;16.304;2022-12-24T09:38:24;1.42;;;0.00;;
69854;SDS011;57146;48.140;16.304;2022-12-24T09:40:51;2.05;;;0.00;;
69854;SDS011;57146;48.140;16.304;2022-12-24T09:43:20;2.40;;;0.10;;
69854;SDS011;57146;48.140;16.304;2022-12-24T09:48:40;2.42;;;0.00;;
69854;SDS011;57146;48.140;16.304;2022-12-24T09:51:30;1.90;;;0.00;;
69854;SDS011;57146;48.140;16.304;2022-12-24T09:53:59;2.67;;;0.00;;
69854;SDS011;57146;48.140;16.304;2022-12-24T09:56:36;2.67;;;0.10;;
69854;SDS011;57146;48.140;16.304;2022-12-24T09:59:08;2.53;;;0.20;;
69854;SDS011;57146;48.140;16.304;2022-12-24T10:01:41;2.63;;;0.10;;
69854;SDS011;57146;48.140;16.304;2022-12-24T10:04:12;1.63;;;0.00;;
69854;SDS011;57146;48.140;16.304;2022-12-24T10:09:10;2.10;;;0.00;;
69854;SDS011;57146;48.140;16.304;2022-12-24T10:11:55;2.87;;;0.00;;
69854;SDS011;57146;48.140;16.304;2022-12-24T10:28:21;2.45;;;0.00;;
69854;SDS011;57146;48.140;16.304;2022-12-24T10:30:58;2.40;;;0.00;;
69854;SDS011;57146;48.140;16.304;2022-12-24T10:33:33;1.42;;;0.00;;
69854;SDS011;57146;48.140;16.304;2022-12-24T10:36:16;4.22;;;0.00;;
69854;SDS011;57146;48.140;16.304;2022-12-24T10:38:45;2.33;;;0.00;;
69854;SDS011;57146;48.140;16.304;2022-12-24T10:41:13;2.50;;;0.00;;
69854;SDS011;57146;48.140;16.304;2022-12-24T10:43:41;3.95;;;0.00;;
69854;SDS011;57146;48.140;16.304;2022-12-24T10:46:17;3.63;;;0.00;;
69854;SDS011;57146;48.140;16.304;2022-12-24T10:52:10;2.73;;;0.10;;
69854;SDS011;57146;48.140;16.304;2022-12-24T10:57:31;6.70;;;0.17;;
69854;SDS011;57146;48.140;16.304;2022-12-24T10:59:59;2.70;;;0.00;;
69854;SDS011;57146;48.140;16.304;2022-12-24T11:05:05;6.83;;;0.10;;
69854;SDS011;57146;48.140;16.304;2022-12-24T11:07:59;3.60;;;0.00;;
69854;SDS011;57146;48.140;16.304;2022-12-24T11:10:32;2.47;;;0.00;;
69854;SDS011;57146;48.140;16.304;2022-12-24T11:13:02;3.60;;;0.00;;
69854;SDS011;57146;48.140;16.304;2022-12-24T11:15:50;3.55;;;0.00;;
69854;SDS011;57146;48.140;16.304;2022-12-24T11:18:47;2.37;;;0.00;;
69854;SDS011;57146;48.140;16.304;2022-12-24T11:21:18;2.88;;;0.00;;
69854;SDS011;57146;48.140;16.304;2022-12-24T11:23:58;1.92;;;0.00;;
69854;SDS011;57146;48.140;16.304;2022-12-24T11:26:33;5.13;;;0.65;;
69854;SDS011;57146;48.140;16.304;2022-12-24T11:29:23;2.95;;;0.10;;
69854;SDS011;57146;48.140;16.304;2022-12-24T11:31:49;3.73;;;0.20;;
69854;SDS011;57146;48.140;16.304;2022-12-24T11:34:30;2.00;;;0.05;;
69854;SDS011;57146;48.140;16.304;2022-12-24T11:39:46;3.40;;;0.00;;
69854;SDS011;57146;48.140;16.304;2022-12-24T11:44:49;5.17;;;0.10;;
69854;SDS011;57146;48.140;16.304;2022-12-24T11:47:16;3.55;;;0.10;;
69854;SDS011;57146;48.140;16.304;2022-12-24T11:50:16;4.10;;;0.10;;
69854;SDS011;57146;48.140;16.304;2022-12-24T11:52:46;3.13;;;0.10;;
69854;SDS011;57146;48.140;16.304;2022-12-24T11:55:20;3.67;;;0.10;;
69854;SDS011;57146;48.140;16.304;2022-12-24T12:00:46;4.45;;;0.20;;
69854;SDS011;57146;48.140;16.304;2022-12-24T12:09:48;3.63;;;0.00;;
69854;SDS011;57146;48.140;16.304;2022-12-24T12:12:26;3.13;;;0.00;;
69854;SDS011;57146;48.140;16.304;2022-12-24T12:15:01;3.10;;;0.00;;
69854;SDS011;57146;48.140;16.304;2022-12-24T12:20:27;3.85;;;0.00;;
69854;SDS011;57146;48.140;16.304;2022-12-24T12:23:02;3.55;;;0.03;;
69854;SDS011;57146;48.140;16.304;2022-12-24T12:28:30;1.55;;;0.08;;
69854;SDS011;57146;48.140;16.304;2022-12-24T12:36:11;2.30;;;0.00;;
69854;SDS011;57146;48.140;16.304;2022-12-24T12:38:41;4.17;;;0.00;;
69854;SDS011;57146;48.140;16.304;2022-12-24T12:57:10;1.77;;;0.00;;
69854;SDS011;57146;48.140;16.304;2022-12-24T13:02:31;1.55;;;0.00;;
69854;SDS011;57146;48.140;16.304;2022-12-24T13:14:28;0.90;;;0.00;;
69854;SDS011;57146;48.140;16.304;2022-12-24T13:17:27;3.25;;;0.00;;
69854;SDS011;57146;48.140;16.304;2022-12-24T13:20:09;2.00;;;0.00;;
69854;SDS011;57146;48.140;16.304;2022-12-24T13:25:31;1.23;;;0.00;;
69854;SDS011;57146;48.140;16.304;2022-12-24T13:28:53;2.50;;;0.00;;
69854;SDS011;57146;48.140;16.304;2022-12-24T13:36:05;2.28;;;0.00;;
69854;SDS011;57146;48.140;16.304;2022-12-24T13:38:53;2.63;;;0.00;;
69854;SDS011;57146;48.140;16.304;2022-12-24T13:49:20;1.95;;;0.00;;
69854;SDS011;57146;48.140;16.304;2022-12-24T13:52:14;1.95;;;0.00;;
69854;SDS011;57146;48.140;16.304;2022-12-24T14:02:37;2.13;;;0.00;;
69854;SDS011;57146;48.140;16.304;2022-12-24T14:05:17;2.22;;;0.00;;
69854;SDS011;57146;48.140;16.304;2022-12-24T14:07:51;3.92;;;0.00;;
69854;SDS011;57146;48.140;16.304;2022-12-24T14:10:24;2.30;;;0.00;;
69854;SDS011;57146;48.140;16.304;2022-12-24T14:13:04;1.83;;;0.00;;
69854;SDS011;57146;48.140;16.304;2022-12-24T14:15:44;2.45;;;0.00;;
69854;SDS011;57146;48.140;16.304;2022-12-24T14:18:17;2.70;;;0.00;;
69854;SDS011;57146;48.140;16.304;2022-12-24T14:20:53;1.83;;;0.00;;
69854;SDS011;57146;48.140;16.304;2022-12-24T14:24:11;2.33;;;0.00;;
69854;SDS011;57146;48.140;16.304;2022-12-24T14:26:18;2.33;;;0.00;;
69854;SDS011;57146;48.140;16.304;2022-12-24T14:28:52;2.33;;;0.00;;
69854;SDS011;57146;48.140;16.304;2022-12-24T14:31:21;2.10;;;0.00;;
69854;SDS011;57146;48.140;16.304;2022-12-24T14:33:49;4.40;;;0.10;;
69854;SDS011;57146;48.140;16.304;2022-12-24T14:36:20;2.25;;;0.00;;
69854;SDS011;57146;48.140;16.304;2022-12-24T14:38:49;1.73;;;0.00;;
69854;SDS011;57146;48.140;16.304;2022-12-24T14:46:45;1.92;;;0.00;;
69854;SDS011;57146;48.140;16.304;2022-12-24T14:49:24;2.03;;;0.00;;
69854;SDS011;57146;48.140;16.304;2022-12-24T14:52:05;3.63;;;0.10;;
69854;SDS011;57146;48.140;16.304;2022-12-24T14:55:26;2.75;;;0.00;;
69854;SDS011;57146;48.140;16.304;2022-12-24T15:00:43;3.85;;;0.00;;
69854;SDS011;57146;48.140;16.304;2022-12-24T15:03:15;2.25;;;0.00;;
69854;SDS011;57146;48.140;16.304;2022-12-24T15:05:44;3.57;;;0.00;;
69854;SDS011;57146;48.140;16.304;2022-12-24T15:08:16;2.10;;;0.00;;
69854;SDS011;57146;48.140;16.304;2022-12-24T15:10:49;1.55;;;0.00;;
69854;SDS011;57146;48.140;16.304;2022-12-24T15:13:23;1.83;;;0.00;;
69854;SDS011;57146;48.140;16.304;2022-12-24T15:15:52;2.97;;;0.03;;
69854;SDS011;57146;48.140;16.304;2022-12-24T15:18:21;2.00;;;0.00;;
69854;SDS011;57146;48.140;16.304;2022-12-24T15:20:53;2.63;;;0.00;;
69854;SDS011;57146;48.140;16.304;2022-12-24T15:23:34;2.45;;;0.00;;
69854;SDS011;57146;48.140;16.304;2022-12-24T15:26:06;2.75;;;0.00;;
69854;SDS011;57146;48.140;16.304;2022-12-24T15:28:40;2.40;;;0.00;;
69854;SDS011;57146;48.140;16.304;2022-12-24T15:31:09;3.43;;;0.10;;
69854;SDS011;57146;48.140;16.304;2022-12-24T15:33:57;4.38;;;0.10;;
69854;SDS011;57146;48.140;16.304;2022-12-24T15:36:31;3.05;;;0.00;;
69854;SDS011;57146;48.140;16.304;2022-12-24T15:39:02;3.15;;;0.00;;
69854;SDS011;57146;48.140;16.304;2022-12-24T15:41:39;3.88;;;0.20;;
69854;SDS011;57146;48.140;16.304;2022-12-24T15:44:11;5.27;;;0.10;;
69854;SDS011;57146;48.140;16.304;2022-12-24T15:46:41;3.45;;;0.00;;
69854;SDS011;57146;48.140;16.304;2022-12-24T15:49:12;5.25;;;0.00;;
69854;SDS011;57146;48.140;16.304;2022-12-24T15:51:42;3.65;;;0.05;;
69854;SDS011;57146;48.140;16.304;2022-12-24T15:54:11;3.05;;;0.10;;
69854;SDS011;57146;48.140;16.304;2022-12-24T15:56:45;3.13;;;0.03;;
69854;SDS011;57146;48.140;16.304;2022-12-24T15:59:19;6.38;;;0.38;;
69854;SDS011;57146;48.140;16.304;2022-12-24T16:01:47;2.63;;;0.00;;
69854;SDS011;57146;48.140;16.304;2022-12-24T16:04:15;2.30;;;0.00;;
69854;SDS011;57146;48.140;16.304;2022-12-24T16:06:52;3.78;;;0.20;;
69854;SDS011;57146;48.140;16.304;2022-12-24T16:09:30;2.50;;;0.03;;
69854;SDS011;57146;48.140;16.304;2022-12-24T16:12:03;2.13;;;0.20;;
69854;SDS011;57146;48.140;16.304;2022-12-24T16:14:30;3.60;;;0.00;;
69854;SDS011;57146;48.140;16.304;2022-12-24T16:16:58;2.45;;;0.00;;
69854;SDS011;57146;48.140;16.304;2022-12-24T16:19:26;3.97;;;0.00;;
69854;SDS011;57146;48.140;16.304;2022-12-24T16:22:04;3.87;;;0.07;;
69854;SDS011;57146;48.140;16.304;2022-12-24T16:24:34;3.38;;;0.10;;
69854;SDS011;57146;48.140;16.304;2022-12-24T16:27:01;3.63;;;0.08;;
69854;SDS011;57146;48.140;16.304;2022-12-24T16:29:28;4.38;;;0.10;;
69854;SDS011;57146;48.140;16.304;2022-12-24T16:31:55;3.75;;;0.30;;
69854;SDS011;57146;48.140;16.304;2022-12-24T16:34:25;2.50;;;0.07;;
69854;SDS011;57146;48.140;16.304;2022-12-24T16:36:54;2.70;;;0.00;;
69854;SDS011;57146;48.140;16.304;2022-12-24T16:39:22;2.92;;;0.00;;
69854;SDS011;57146;48.140;16.304;2022-12-24T16:41:52;2.88;;;0.00;;
69854;SDS011;57146;48.140;16.304;2022-12-24T16:44:20;3.90;;;0.00;;
69854;SDS011;57146;48.140;16.304;2022-12-24T16:46:47;2.63;;;0.03;;
69854;SDS011;57146;48.140;16.304;2022-12-24T16:49:18;2.97;;;0.10;;
69854;SDS011;57146;48.140;16.304;2022-12-24T16:51:46;4.28;;;0.10;;
69854;SDS011;57146;48.140;16.304;2022-12-24T16:54:13;9.82;;;0.32;;
69854;SDS011;57146;48.140;16.304;2022-12-24T16:56:41;3.42;;;0.10;;
69854;SDS011;57146;48.140;16.304;2022-12-24T16:59:13;3.50;;;0.10;;
69854;SDS011;57146;48.140;16.304;2022-12-24T17:01:45;2.50;;;0.10;;
69854;SDS011;57146;48.140;16.304;2022-12-24T17:04:13;3.95;;;0.10;;
69854;SDS011;57146;48.140;16.304;2022-12-24T17:06:41;3.38;;;0.10;;
69854;SDS011;57146;48.140;16.304;2022-12-24T17:09:08;3.00;;;0.00;;